createdAt,value
2018-07-31T00:01:09.452Z,19.20
2018-07-31T00:03:37.445Z,19.50
2018-07-31T00:06:05.411Z,19.70
2018-07-31T00:08:33.361Z,19.60
2018-07-31T00:11:01.341Z,19.70
2018-07-31T00:13:29.317Z,19.70
2018-07-31T00:15:57.282Z,19.60
2018-07-31T00:18:25.256Z,19.70
2018-07-31T00:20:53.181Z,19.70
2018-07-31T00:23:21.165Z,19.60
2018-07-31T00:25:49.088Z,19.50
2018-07-31T00:28:17.072Z,19.50
2018-07-31T00:30:44.989Z,19.50
2018-07-31T00:33:12.916Z,19.50
2018-07-31T00:35:40.904Z,19.50
2018-07-31T00:38:08.929Z,19.40
2018-07-31T00:40:36.933Z,19.30
2018-07-31T00:43:04.916Z,19.20
2018-07-31T00:45:32.849Z,19.20
2018-07-31T00:48:00.837Z,19.10
2018-07-31T00:50:28.771Z,19.00
2018-07-31T00:52:56.747Z,19.00
2018-07-31T00:55:24.756Z,18.90
2018-07-31T00:57:52.672Z,18.80
2018-07-31T01:00:20.653Z,18.70
2018-07-31T01:02:51.233Z,18.70
2018-07-31T01:05:19.215Z,18.90
2018-07-31T01:07:47.148Z,18.90
2018-07-31T01:10:15.101Z,18.70
2018-07-31T01:12:43.060Z,18.80
2018-07-31T01:15:11.081Z,18.90
2018-07-31T01:17:39.048Z,18.80
2018-07-31T01:20:06.974Z,18.80
2018-07-31T01:22:34.926Z,18.80
2018-07-31T01:25:02.904Z,18.80
2018-07-31T01:27:30.881Z,18.80
2018-07-31T01:29:58.897Z,18.70
2018-07-31T01:32:26.860Z,18.60
2018-07-31T01:34:54.892Z,18.60
2018-07-31T01:37:22.820Z,18.60
2018-07-31T01:39:50.897Z,18.60
2018-07-31T01:42:18.860Z,18.70
2018-07-31T01:44:46.820Z,18.50
2018-07-31T01:47:14.774Z,18.50
2018-07-31T01:49:42.804Z,18.40
2018-07-31T01:52:10.815Z,18.40
2018-07-31T01:54:38.766Z,18.30
2018-07-31T01:57:06.780Z,18.30
2018-07-31T01:59:34.765Z,18.30
2018-07-31T02:02:02.696Z,18.30
2018-07-31T02:04:30.634Z,18.30
2018-07-31T02:06:58.590Z,18.40
2018-07-31T02:09:26.574Z,18.30
2018-07-31T02:11:54.552Z,18.10
2018-07-31T02:14:22.471Z,18.00
2018-07-31T02:16:50.422Z,17.90
2018-07-31T02:19:18.384Z,17.90
2018-07-31T02:21:46.334Z,17.80
2018-07-31T02:24:14.340Z,17.80
2018-07-31T02:26:42.299Z,17.90
2018-07-31T02:29:10.323Z,17.90
2018-07-31T02:31:38.260Z,18.00
2018-07-31T02:34:06.393Z,18.00
2018-07-31T02:36:34.666Z,17.90
2018-07-31T02:39:02.697Z,17.70
2018-07-31T02:41:30.690Z,17.90
2018-07-31T02:43:58.661Z,17.70
2018-07-31T02:46:26.633Z,17.50
2018-07-31T02:48:54.578Z,17.50
2018-07-31T02:51:22.518Z,17.30
2018-07-31T02:53:50.480Z,17.20
2018-07-31T02:56:18.423Z,16.90
2018-07-31T02:58:46.400Z,16.80
2018-07-31T03:01:14.352Z,16.70
2018-07-31T03:03:42.335Z,16.50
2018-07-31T03:06:10.278Z,16.20
2018-07-31T03:08:38.264Z,16.30
2018-07-31T03:11:06.503Z,16.40
2018-07-31T03:13:34.433Z,16.20
2018-07-31T03:16:02.404Z,15.90
2018-07-31T03:18:30.381Z,15.90
2018-07-31T03:20:58.401Z,15.90
2018-07-31T03:23:26.456Z,16.00
2018-07-31T03:25:54.415Z,15.90
2018-07-31T03:28:22.344Z,15.90
2018-07-31T03:30:50.367Z,15.90
2018-07-31T03:33:18.315Z,16.00
2018-07-31T03:35:46.237Z,16.10
2018-07-31T03:38:14.196Z,16.00
2018-07-31T03:40:42.180Z,16.20
2018-07-31T03:43:10.175Z,16.10
2018-07-31T03:45:38.157Z,16.20
2018-07-31T03:48:06.114Z,16.10
2018-07-31T03:50:34.079Z,16.20
2018-07-31T03:53:01.996Z,16.20
2018-07-31T03:55:30.030Z,16.10
2018-07-31T03:57:57.972Z,16.10
2018-07-31T04:00:25.961Z,16.10
2018-07-31T04:02:53.974Z,16.00
2018-07-31T04:05:21.971Z,15.90
2018-07-31T04:07:49.908Z,15.90
2018-07-31T04:10:17.922Z,15.90
2018-07-31T04:12:45.904Z,15.80
2018-07-31T04:15:13.846Z,15.90
2018-07-31T04:17:46.664Z,15.80
2018-07-31T04:20:14.649Z,15.80
2018-07-31T04:22:42.629Z,15.90
2018-07-31T04:25:10.562Z,15.90
2018-07-31T04:27:38.522Z,15.80
2018-07-31T04:30:06.499Z,15.80
2018-07-31T04:32:34.440Z,15.70
2018-07-31T04:35:02.452Z,15.60
2018-07-31T04:37:30.495Z,15.80
2018-07-31T04:39:58.491Z,15.80
2018-07-31T04:42:26.531Z,15.80
2018-07-31T04:44:54.426Z,15.90
2018-07-31T04:47:22.394Z,15.90
2018-07-31T04:49:50.333Z,15.80
2018-07-31T04:52:18.349Z,15.80
2018-07-31T04:54:46.289Z,15.80
2018-07-31T04:57:14.205Z,15.80
2018-07-31T04:59:42.148Z,15.90
2018-07-31T05:02:10.110Z,15.90
2018-07-31T05:04:38.163Z,15.90
2018-07-31T05:07:06.122Z,16.00
2018-07-31T05:09:34.041Z,16.00
2018-07-31T05:12:02.008Z,16.10
2018-07-31T05:14:29.980Z,16.20
2018-07-31T05:16:57.996Z,16.30
2018-07-31T05:19:25.946Z,16.40
2018-07-31T05:21:53.921Z,16.50
2018-07-31T05:24:21.916Z,16.60
2018-07-31T05:26:49.868Z,16.60
2018-07-31T05:29:17.871Z,16.80
2018-07-31T05:31:45.819Z,17.00
2018-07-31T05:34:13.796Z,17.10
2018-07-31T05:36:41.906Z,17.20
2018-07-31T05:39:11.109Z,17.30
2018-07-31T05:41:39.094Z,17.30
2018-07-31T05:44:07.047Z,17.50
2018-07-31T05:46:49.031Z,17.80
2018-07-31T05:49:16.970Z,17.90
2018-07-31T05:51:45.000Z,18.20
2018-07-31T05:54:12.987Z,18.50
2018-07-31T05:56:40.967Z,18.50
2018-07-31T05:59:08.928Z,18.70
2018-07-31T06:01:36.900Z,19.00
2018-07-31T06:04:04.990Z,19.30
2018-07-31T06:06:32.945Z,19.60
2018-07-31T06:09:00.914Z,19.70
2018-07-31T06:11:28.849Z,19.80
2018-07-31T06:13:56.829Z,20.00
2018-07-31T06:16:24.868Z,20.10
2018-07-31T06:18:52.915Z,20.20
2018-07-31T06:21:20.872Z,20.30
2018-07-31T06:23:48.823Z,20.40
2018-07-31T06:26:16.799Z,20.50
2018-07-31T06:28:44.764Z,20.60
2018-07-31T06:31:12.725Z,20.80
2018-07-31T06:33:40.733Z,20.90
2018-07-31T06:36:08.920Z,21.00
2018-07-31T06:38:36.948Z,20.80
2018-07-31T06:41:04.949Z,20.70
2018-07-31T06:43:32.914Z,21.00
2018-07-31T06:46:00.915Z,21.20
2018-07-31T06:48:28.877Z,21.30
2018-07-31T06:50:56.832Z,21.40
2018-07-31T06:53:24.800Z,21.40
2018-07-31T06:55:52.801Z,21.50
2018-07-31T06:58:20.760Z,21.00
2018-07-31T07:00:48.729Z,21.40
2018-07-31T07:03:16.669Z,21.60
2018-07-31T07:05:44.578Z,21.60
2018-07-31T07:08:12.543Z,21.60
2018-07-31T07:10:40.481Z,21.60
2018-07-31T07:13:08.498Z,21.80
2018-07-31T07:15:36.435Z,21.80
2018-07-31T07:18:04.465Z,21.90
2018-07-31T07:20:32.537Z,22.00
2018-07-31T07:23:00.471Z,22.10
2018-07-31T07:25:28.419Z,22.00
2018-07-31T07:28:12.016Z,22.30
2018-07-31T07:30:41.210Z,22.20
2018-07-31T07:33:09.147Z,22.20
2018-07-31T07:35:37.089Z,22.20
2018-07-31T07:38:05.095Z,22.20
2018-07-31T07:40:33.052Z,22.30
2018-07-31T07:43:01.034Z,22.40
2018-07-31T07:45:28.978Z,22.50
2018-07-31T07:47:56.936Z,22.30
2018-07-31T07:50:24.904Z,22.60
2018-07-31T07:52:52.940Z,22.60
2018-07-31T07:55:20.939Z,22.70
2018-07-31T07:57:48.890Z,22.80
2018-07-31T08:00:16.809Z,22.80
2018-07-31T08:02:44.780Z,22.90
2018-07-31T08:05:12.689Z,23.40
2018-07-31T08:07:40.687Z,23.30
2018-07-31T08:10:08.670Z,23.30
2018-07-31T08:12:36.640Z,23.40
2018-07-31T08:15:05.070Z,23.50
2018-07-31T08:17:33.050Z,23.40
2018-07-31T08:20:01.021Z,23.60
2018-07-31T08:22:28.958Z,23.70
2018-07-31T08:24:56.875Z,23.80
2018-07-31T08:27:24.867Z,24.00
2018-07-31T08:29:52.849Z,23.80
2018-07-31T08:32:20.859Z,24.00
2018-07-31T08:34:48.833Z,23.70
2018-07-31T08:37:16.769Z,24.20
2018-07-31T08:39:44.821Z,24.20
2018-07-31T08:42:12.778Z,24.10
2018-07-31T08:44:40.810Z,24.20
2018-07-31T08:47:08.738Z,24.20
2018-07-31T08:49:36.657Z,24.30
2018-07-31T08:52:04.627Z,24.20
2018-07-31T08:54:32.579Z,24.30
2018-07-31T08:57:00.952Z,24.60
2018-07-31T08:59:28.842Z,24.70
2018-07-31T09:01:56.848Z,24.80
2018-07-31T09:04:24.804Z,24.70
2018-07-31T09:06:52.793Z,24.70
2018-07-31T09:09:20.760Z,25.10
2018-07-31T09:11:48.681Z,25.30
2018-07-31T09:14:16.648Z,25.40
2018-07-31T09:16:44.577Z,25.30
2018-07-31T09:19:12.497Z,25.60
2018-07-31T09:21:43.550Z,25.40
2018-07-31T09:24:11.478Z,25.60
2018-07-31T09:26:39.493Z,25.80
2018-07-31T09:29:07.428Z,25.90
2018-07-31T09:31:35.358Z,25.30
2018-07-31T09:34:03.306Z,25.80
2018-07-31T09:36:31.332Z,26.40
2018-07-31T09:38:59.196Z,26.20
2018-07-31T09:41:27.134Z,25.90
2018-07-31T09:43:55.049Z,26.10
2018-07-31T09:46:23.015Z,26.10
2018-07-31T09:48:51.011Z,25.90
2018-07-31T09:51:19.006Z,25.60
2018-07-31T09:53:46.932Z,25.90
2018-07-31T09:56:14.880Z,25.90
2018-07-31T09:58:42.863Z,26.00
2018-07-31T10:01:16.771Z,25.90
2018-07-31T10:03:44.792Z,26.30
2018-07-31T10:06:12.864Z,26.40
2018-07-31T10:08:40.811Z,26.30
2018-07-31T10:11:08.739Z,26.10
2018-07-31T10:13:36.712Z,26.70
2018-07-31T10:16:04.681Z,27.00
2018-07-31T10:18:32.655Z,27.40
2018-07-31T10:21:00.632Z,27.60
2018-07-31T10:23:28.542Z,27.80
2018-07-31T10:25:56.519Z,27.80
2018-07-31T10:28:24.435Z,27.90
2018-07-31T10:30:52.497Z,28.00
2018-07-31T10:33:20.392Z,28.00
2018-07-31T10:35:48.289Z,27.90
2018-07-31T10:38:16.243Z,27.90
2018-07-31T10:40:44.180Z,27.50
2018-07-31T10:43:12.187Z,27.70
2018-07-31T10:45:40.103Z,28.00
2018-07-31T10:48:08.093Z,28.30
2018-07-31T10:50:36.108Z,28.10
2018-07-31T10:53:04.028Z,28.70
2018-07-31T10:55:31.938Z,28.80
2018-07-31T10:57:59.987Z,29.20
2018-07-31T11:00:27.987Z,29.20
2018-07-31T11:02:55.943Z,29.40
2018-07-31T11:05:23.839Z,28.50
2018-07-31T11:07:51.779Z,28.80
2018-07-31T11:10:19.750Z,29.00
2018-07-31T11:12:47.858Z,29.40
2018-07-31T11:15:15.799Z,29.80
2018-07-31T11:17:43.768Z,29.30
2018-07-31T11:20:11.733Z,29.40
2018-07-31T11:22:39.678Z,29.30
2018-07-31T11:25:07.597Z,29.30
2018-07-31T11:27:35.575Z,29.80
2018-07-31T11:30:04.090Z,30.00
2018-07-31T11:32:32.048Z,30.00
2018-07-31T11:34:59.991Z,30.70
2018-07-31T11:37:27.929Z,31.30
2018-07-31T11:39:55.876Z,31.00
2018-07-31T11:42:23.821Z,31.00
2018-07-31T11:44:51.857Z,31.10
2018-07-31T11:47:19.831Z,30.80
2018-07-31T11:49:47.834Z,31.60
2018-07-31T11:52:15.726Z,31.20
2018-07-31T11:54:43.713Z,31.80
2018-07-31T11:57:11.625Z,31.50
2018-07-31T11:59:39.529Z,31.60
2018-07-31T12:02:07.714Z,31.60
2018-07-31T12:04:35.659Z,32.10
2018-07-31T12:07:03.638Z,32.10
2018-07-31T12:09:31.567Z,32.30
2018-07-31T12:11:59.537Z,32.30
2018-07-31T12:14:27.459Z,32.30
2018-07-31T12:16:55.365Z,32.30
2018-07-31T12:19:23.294Z,33.00
2018-07-31T12:21:51.252Z,32.70
2018-07-31T12:24:19.205Z,32.90
2018-07-31T12:26:47.140Z,32.00
2018-07-31T12:29:15.092Z,32.60
2018-07-31T12:31:42.998Z,32.40
2018-07-31T12:34:10.919Z,33.10
2018-07-31T12:36:38.851Z,33.40
2018-07-31T12:39:09.631Z,33.00
2018-07-31T12:41:37.604Z,32.60
2018-07-31T12:44:05.679Z,32.60
2018-07-31T12:46:33.820Z,33.30
2018-07-31T12:49:01.729Z,33.60
2018-07-31T12:51:29.650Z,33.00
2018-07-31T12:53:57.615Z,32.80
2018-07-31T12:56:25.545Z,32.90
2018-07-31T12:58:53.611Z,32.90
2018-07-31T13:01:21.541Z,33.90
2018-07-31T13:03:49.495Z,33.20
2018-07-31T13:06:17.433Z,34.50
2018-07-31T13:08:45.428Z,34.40
2018-07-31T13:11:14.288Z,33.40
2018-07-31T13:13:42.196Z,33.70
2018-07-31T13:16:10.174Z,33.80
2018-07-31T13:18:38.102Z,33.30
2018-07-31T13:21:06.102Z,33.40
2018-07-31T13:23:34.034Z,33.20
2018-07-31T13:26:01.972Z,35.10
2018-07-31T13:28:29.916Z,34.40
2018-07-31T13:30:57.904Z,35.20
2018-07-31T13:33:25.865Z,34.40
2018-07-31T13:35:53.876Z,34.80
2018-07-31T13:38:21.825Z,35.00
2018-07-31T13:40:49.853Z,35.20
2018-07-31T13:43:17.859Z,34.70
2018-07-31T13:45:45.759Z,35.70
2018-07-31T13:48:14.255Z,35.30
2018-07-31T13:50:42.217Z,35.40
2018-07-31T13:53:10.134Z,35.90
2018-07-31T13:55:38.159Z,35.80
2018-07-31T13:58:06.251Z,35.50
2018-07-31T14:00:34.204Z,36.00
2018-07-31T14:03:02.140Z,36.70
2018-07-31T14:05:30.109Z,36.30
2018-07-31T14:07:58.020Z,36.30
2018-07-31T14:10:26.069Z,36.50
2018-07-31T14:12:53.965Z,36.20
2018-07-31T14:15:21.942Z,36.00
2018-07-31T14:17:49.871Z,36.50
2018-07-31T14:20:17.807Z,37.10
2018-07-31T14:22:45.786Z,37.60
2018-07-31T14:25:13.730Z,38.00
2018-07-31T14:27:41.710Z,39.40
2018-07-31T14:30:09.622Z,42.00
2018-07-31T14:32:37.570Z,41.80
2018-07-31T14:35:05.497Z,41.80
2018-07-31T14:37:33.458Z,44.80
2018-07-31T14:40:01.403Z,43.00
2018-07-31T14:42:29.398Z,42.30
2018-07-31T14:44:57.426Z,43.80
2018-07-31T14:47:25.303Z,43.20
2018-07-31T14:49:53.329Z,43.50
2018-07-31T14:52:21.281Z,43.10
2018-07-31T14:54:49.257Z,44.70
2018-07-31T14:57:17.190Z,44.00
2018-07-31T14:59:45.157Z,44.20
2018-07-31T15:02:13.257Z,43.60
2018-07-31T15:04:41.236Z,44.90
2018-07-31T15:07:09.160Z,41.80
2018-07-31T15:09:37.116Z,41.20
2018-07-31T15:12:05.091Z,42.50
2018-07-31T15:14:33.024Z,43.30
2018-07-31T15:17:01.035Z,44.60
2018-07-31T15:19:28.944Z,42.90
2018-07-31T15:21:56.897Z,43.80
2018-07-31T15:24:25.789Z,42.70
2018-07-31T15:26:53.811Z,43.80
2018-07-31T15:29:21.746Z,42.60
2018-07-31T15:31:49.656Z,41.10
2018-07-31T15:34:17.603Z,42.90
2018-07-31T15:36:45.511Z,44.10
2018-07-31T15:39:13.668Z,40.90
2018-07-31T15:41:41.871Z,39.30
2018-07-31T15:44:10.292Z,38.40
2018-07-31T15:46:38.249Z,38.30
2018-07-31T15:49:06.333Z,38.30
2018-07-31T15:51:34.312Z,38.60
2018-07-31T15:54:02.315Z,38.80
2018-07-31T15:56:30.305Z,37.80
2018-07-31T15:58:59.104Z,38.80
2018-07-31T16:01:28.008Z,39.20
2018-07-31T16:03:56.008Z,38.30
2018-07-31T16:06:23.980Z,38.70
2018-07-31T16:08:51.944Z,38.20
2018-07-31T16:11:19.900Z,38.30
2018-07-31T16:13:47.834Z,38.60
2018-07-31T16:16:15.814Z,38.90
2018-07-31T16:18:43.830Z,37.80
2018-07-31T16:21:11.776Z,37.40
2018-07-31T16:23:39.767Z,39.30
2018-07-31T16:26:07.698Z,38.50
2018-07-31T16:28:35.667Z,38.50
2018-07-31T16:31:03.619Z,37.90
2018-07-31T16:33:31.593Z,37.30
2018-07-31T16:35:59.568Z,37.50
2018-07-31T16:38:27.534Z,38.40
2018-07-31T16:40:55.491Z,37.80
2018-07-31T16:43:23.418Z,38.10
2018-07-31T16:45:51.460Z,37.60
2018-07-31T16:48:19.421Z,37.40
2018-07-31T16:50:47.481Z,37.80
2018-07-31T16:53:15.399Z,38.30
2018-07-31T16:55:43.347Z,37.00
2018-07-31T16:58:11.315Z,36.60
2018-07-31T17:00:39.248Z,36.90
2018-07-31T17:03:07.194Z,37.00
2018-07-31T17:05:35.125Z,36.60
2018-07-31T17:08:03.131Z,36.90
2018-07-31T17:10:31.032Z,37.10
2018-07-31T17:12:58.997Z,37.10
2018-07-31T17:15:26.935Z,37.40
2018-07-31T17:17:54.892Z,37.40
2018-07-31T17:20:22.854Z,37.30
2018-07-31T17:22:50.844Z,37.40
2018-07-31T17:25:18.805Z,37.00
2018-07-31T17:27:46.732Z,36.20
2018-07-31T17:30:14.682Z,37.60
2018-07-31T17:32:42.618Z,36.40
2018-07-31T17:35:10.576Z,37.00
2018-07-31T17:37:38.506Z,37.30
2018-07-31T17:40:06.516Z,36.50
2018-07-31T17:42:34.453Z,37.70
2018-07-31T17:45:02.421Z,37.90
2018-07-31T17:47:30.374Z,37.50
2018-07-31T17:49:58.352Z,37.70
2018-07-31T17:52:26.318Z,37.40
2018-07-31T17:54:54.307Z,37.40
2018-07-31T17:57:22.288Z,36.10
2018-07-31T17:59:50.238Z,35.50
2018-07-31T18:02:18.177Z,35.20
2018-07-31T18:04:46.146Z,35.40
2018-07-31T18:07:14.065Z,34.80
2018-07-31T18:09:42.027Z,35.00
2018-07-31T18:12:10.115Z,34.60
2018-07-31T18:14:38.101Z,34.20
2018-07-31T18:17:06.198Z,34.00
2018-07-31T18:19:34.138Z,34.10
2018-07-31T18:22:02.115Z,33.90
2018-07-31T18:24:30.040Z,33.50
2018-07-31T18:26:58.004Z,33.00
2018-07-31T18:29:25.951Z,32.70
2018-07-31T18:31:53.961Z,32.00
2018-07-31T18:34:21.883Z,32.30
2018-07-31T18:36:49.862Z,31.80
2018-07-31T18:39:20.851Z,31.50
2018-07-31T18:41:48.833Z,31.20
2018-07-31T18:44:16.829Z,30.90
2018-07-31T18:46:44.781Z,30.60
2018-07-31T18:49:12.748Z,30.40
2018-07-31T18:51:40.705Z,30.40
2018-07-31T18:54:08.671Z,30.30
2018-07-31T18:56:36.740Z,30.50
2018-07-31T18:59:04.759Z,30.40
2018-07-31T19:01:32.862Z,30.50
2018-07-31T19:04:00.726Z,30.20
2018-07-31T19:06:28.680Z,30.00
2018-07-31T19:08:56.648Z,30.20
2018-07-31T19:11:24.599Z,29.40
2018-07-31T19:13:52.581Z,28.80
2018-07-31T19:16:20.624Z,28.60
2018-07-31T19:18:48.569Z,28.50
2018-07-31T19:21:16.527Z,29.10
2018-07-31T19:23:44.453Z,29.30
2018-07-31T19:26:12.422Z,29.20
2018-07-31T19:28:40.387Z,29.30
2018-07-31T19:31:08.310Z,28.90
2018-07-31T19:33:36.275Z,28.70
2018-07-31T19:36:04.201Z,29.00
2018-07-31T19:38:32.178Z,28.70
2018-07-31T19:41:00.137Z,29.00
2018-07-31T19:43:28.068Z,29.20
2018-07-31T19:45:56.082Z,28.00
2018-07-31T19:48:24.000Z,27.90
2018-07-31T19:50:51.991Z,28.50
2018-07-31T19:53:19.956Z,28.40
2018-07-31T19:55:47.955Z,28.10
2018-07-31T19:58:16.192Z,28.20
2018-07-31T20:00:44.121Z,28.00
2018-07-31T20:03:12.043Z,28.00
2018-07-31T20:05:39.968Z,28.20
2018-07-31T20:08:07.930Z,27.70
2018-07-31T20:10:35.849Z,27.70
2018-07-31T20:13:07.111Z,27.50
2018-07-31T20:15:35.092Z,27.10
2018-07-31T20:18:03.012Z,27.30
2018-07-31T20:20:30.943Z,27.40
2018-07-31T20:22:58.928Z,27.40
2018-07-31T20:25:26.861Z,27.20
2018-07-31T20:27:54.818Z,27.10
2018-07-31T20:30:22.737Z,26.90
2018-07-31T20:32:50.676Z,27.00
2018-07-31T20:35:18.642Z,27.00
2018-07-31T20:37:46.594Z,27.20
2018-07-31T20:40:14.538Z,27.10
2018-07-31T20:42:42.469Z,27.10
2018-07-31T20:45:10.458Z,27.10
2018-07-31T20:47:38.406Z,27.00
2018-07-31T20:50:06.334Z,26.70
2018-07-31T20:52:34.316Z,26.60
2018-07-31T20:55:02.232Z,26.50
2018-07-31T20:57:30.202Z,26.60
2018-07-31T20:59:58.125Z,26.50
2018-07-31T21:02:26.057Z,26.30
2018-07-31T21:04:54.029Z,26.60
2018-07-31T21:07:21.947Z,26.50
2018-07-31T21:09:49.899Z,26.30
2018-07-31T21:12:17.826Z,26.30
2018-07-31T21:14:45.796Z,26.10
2018-07-31T21:17:13.734Z,26.00
2018-07-31T21:19:41.707Z,26.00
2018-07-31T21:22:09.747Z,25.30
2018-07-31T21:24:37.685Z,25.40
2018-07-31T21:27:08.475Z,25.60
2018-07-31T21:29:36.409Z,25.60
2018-07-31T21:32:04.383Z,25.60
2018-07-31T21:34:32.472Z,25.20
2018-07-31T21:37:00.392Z,25.10
2018-07-31T21:39:28.334Z,24.80
2018-07-31T21:41:56.271Z,24.90
2018-07-31T21:44:24.248Z,25.10
2018-07-31T21:46:52.205Z,25.20
2018-07-31T21:49:20.208Z,24.90
2018-07-31T21:51:48.137Z,25.00
2018-07-31T21:54:16.078Z,25.00
2018-07-31T21:56:44.065Z,24.90
2018-07-31T21:59:12.109Z,24.60
2018-07-31T22:01:40.089Z,24.60
2018-07-31T22:04:08.056Z,24.60
2018-07-31T22:06:36.026Z,24.80
2018-07-31T22:09:08.946Z,25.00
2018-07-31T22:11:38.655Z,24.70
2018-07-31T22:14:11.347Z,24.50
2018-07-31T22:16:46.968Z,24.80
2018-07-31T22:19:23.055Z,24.50
2018-07-31T22:22:01.339Z,24.40
2018-07-31T22:24:30.842Z,24.40
2018-07-31T22:26:59.983Z,24.60
2018-07-31T22:29:29.485Z,24.40
2018-07-31T22:32:03.086Z,24.40
2018-07-31T22:34:32.445Z,24.30
2018-07-31T22:37:01.927Z,24.40
2018-07-31T22:39:36.095Z,24.10
2018-07-31T22:42:05.286Z,24.20
2018-07-31T22:44:37.931Z,24.10
2018-07-31T22:47:10.783Z,24.20
2018-07-31T22:49:41.690Z,24.40
2018-07-31T22:52:15.439Z,24.20
2018-07-31T22:54:47.758Z,24.20
2018-07-31T22:57:17.301Z,24.20
2018-07-31T22:59:47.932Z,24.30
2018-07-31T23:02:16.874Z,24.30
2018-07-31T23:04:46.056Z,24.10
2018-07-31T23:07:17.932Z,23.90
2018-07-31T23:10:08.078Z,23.60
2018-07-31T23:12:37.602Z,23.60
2018-07-31T23:15:08.339Z,23.40
2018-07-31T23:17:37.859Z,23.30
2018-07-31T23:20:07.350Z,23.20
2018-07-31T23:22:50.919Z,23.30
2018-07-31T23:25:21.153Z,23.70
2018-07-31T23:27:50.093Z,23.40
2018-07-31T23:30:22.531Z,23.40
2018-07-31T23:32:56.382Z,23.10
2018-07-31T23:35:27.039Z,23.20
2018-07-31T23:37:59.603Z,23.20
2018-07-31T23:40:32.459Z,23.30
2018-07-31T23:43:01.715Z,23.20
2018-07-31T23:45:31.224Z,23.30
2018-07-31T23:48:01.421Z,23.30
2018-07-31T23:50:33.291Z,23.10
2018-07-31T23:53:06.058Z,22.90
2018-07-31T23:55:39.881Z,23.00
2018-07-31T23:58:08.493Z,22.60
